ADDS METAR Data INFO
IDs: Format: Raw Decoded Include TAF

Data at: 2244 UTC 16 Jan 2018

KPKD 162153Z AUTO 28007KT 10SM CLR M13/M21 A3051 RMK AO2 SLP377 T11331206
KPKD 162053Z AUTO 25006KT 10SM CLR M14/M19 A3052 RMK AO2 SLP380 T11391189 56025
KPKD 161953Z AUTO 00000KT 10SM CLR M14/M19 A3054 RMK AO2 SLP385 T11441189
KPKD 161853Z AUTO 27003KT 10SM CLR M17/M20 A3056 RMK AO2 SLP395 T11671200
KPKD 161753Z AUTO 30003KT 10SM CLR M19/M22 A3060 RMK AO2 SLP408 T11891222 11189 21289 58012
KPKD 161653Z AUTO 26006KT 10SM CLR M23/M26 A3062 RMK AO2 SLP420 T12281256
KPKD 161553Z AUTO 27003KT 10SM CLR M26/M27 A3063 RMK AO2 SLP423 T12561272
KPKD 161453Z AUTO 30004KT 10SM CLR M28/M31 A3064 RMK AO2 SLP428 T12781306 58004
KPKD 161353Z AUTO 28005KT 10SM CLR M28/M31 A3064 RMK AO2 SLP431 T12781311
KPKD 161253Z AUTO 28003KT 10SM CLR M27/M31 A3065 RMK AO2 SLP433 T12721306 $
KPKD 161203Z AUTO 31005KT 10SM SCT006 M26/M29 A3065 RMK AO2 T12611294 $
KPKD 161153Z AUTO 32005KT 10SM CLR M26/M29 A3065 RMK AO2 SLP432 I6000 T12611294 11194 21267 58002 $
KPKD 161053Z AUTO 33006KT 10SM CLR M24/M27 A3065 RMK AO2 SLP431 T12441272 $
KPKD 160953Z AUTO 33008KT 10SM SCT008 M23/M26 A3065 RMK AO2 SLP431 T12331261 $
KPKD 160853Z AUTO 34008KT 10SM OVC008 M21/M23 A3066 RMK AO2 SLP429 I1000 I3000 T12061233 53006 $
KPKD 160835Z AUTO 35009KT 7SM OVC009 M21/M23 A3065 RMK AO2 I1000 T12061233 $
KPKD 160817Z AUTO 34009KT 10SM OVC010 M21/M23 A3065 RMK AO2 T12061233 $
KPKD 160753Z AUTO 34006KT 10SM OVC009 M19/M22 A3064 RMK AO2 SLP422 T11941222 $
KPKD 160653Z AUTO 01008KT 5SM HZ OVC010 M19/M22 A3064 RMK AO2 SLP421 T11941222 $
KPKD 160553Z AUTO 36007KT 9SM OVC010 M19/M22 A3064 RMK AO2 SLP421 60000 T11941222 11194 21211 411891222 50004 $
KPKD 160453Z AUTO 01007G16KT 10SM OVC012 M19/M22 A3064 RMK AO2 UPE11 SLP423 P0000 T11941222 $
KPKD 160353Z AUTO 36011KT 10SM UP OVC013 M19/M23 A3063 RMK AO2 UPB47 SLP419 P0000 T11941228 $
KPKD 160253Z AUTO 01009KT 10SM OVC013 M20/M23 A3062 RMK AO2 SLP420 T12001233 51014 $
KPKD 160153Z AUTO 35009KT 10SM OVC013 M21/M24 A3062 RMK AO2 SLP418 T12061239 $
KPKD 160053Z AUTO 35011KT 10SM OVC014 M21/M25 A3060 RMK AO2 SLP411 T12111250 $
KPKD 152353Z AUTO 34012KT 10SM OVC014 M21/M26 A3058 RMK AO2 SLP405 T12111256 11189 21211 51025 $
KPKD 152319Z AUTO 34010KT 10SM BKN015 M21/M26 A3057 RMK AO2 T12111256 $
KPKD 152253Z AUTO 34009KT 10SM OVC014 M21/M25 A3056 RMK AO2 SLP396 T12061250 $
KPKD 152239Z AUTO 33011KT 10SM BKN014 M20/M24 A3054 RMK AO2 T12001244 $
KPKD 152232Z AUTO 33012KT 10SM BKN016 M20/M24 A3054 RMK AO2 T12001244 $
KPKD 152153Z AUTO 34010KT 10SM CLR M19/M24 A3053 RMK AO2 SLP386 T11941244 $
KPKD 152053Z AUTO 33013KT 10SM CLR M19/M24 A3050 RMK AO2 SLP375 T11941244 53010 $
KPKD 151953Z AUTO 34012KT 10SM CLR M19/M24 A3049 RMK AO2 SLP369 T11891244 $
KPKD 151853Z AUTO 34015KT 10SM CLR M19/M24 A3047 RMK AO2 SLP366 T11941244 $
KPKD 151753Z AUTO 33014G20KT 10SM CLR M20/M24 A3047 RMK AO2 SLP363 60000 T12001244 11200 21222 50010 $
KPKD 151739Z AUTO 34013G23KT 10SM SCT025 M20/M25 A3047 RMK AO2 T12001250 $
KPKD 151653Z AUTO 34012G22KT 4SM HZ OVC016 M21/M24 A3047 RMK AO2 SNE1556B23E36 SLP365 P0000 T12061244 $
KPKD 151640Z AUTO 34014G23KT 4SM HZ BKN015 OVC120 M21/M25 A3047 RMK AO2 SNE1556B23E36 P0000 T12061250 $
KPKD 151630Z AUTO 35012G20KT 2 1/2SM -SN BKN015 BKN120 M21/M25 A3047 RMK AO2 SNE1556B23 P0000 T12061250 $
KPKD 151604Z AUTO 35016G25KT 5SM HZ SCT017 BKN120 M21/M25 A3046 RMK AO2 SNE1556 P0000 T12061250 $
KPKD 151553Z AUTO 34017G23KT 4SM -SN BKN016 M21/M24 A3045 RMK AO2 SNB46 SLP357 P0000 T12061244 $
KPKD 151453Z AUTO 33011KT 10SM BKN100 M22/M26 A3044 RMK AO2 UPE46 SLP354 P0000 60000 T12221256 51028 $
KPKD 151353Z AUTO 34010G18KT 10SM UP OVC095 M22/M26 A3041 RMK AO2 SLP341 P0000 T12171256 $
KPKD 151253Z AUTO 33011KT 10SM UP OVC080 M21/M25 A3039 RMK AO2 SLP334 P0000 T12111250 $
KPKD 151153Z AUTO 34013KT 10SM UP OVC070 M21/M25 A3035 RMK AO2 SLP321 P0000 60000 70001 T12111250 11183 21217 51024
KPKD 151053Z AUTO 33012KT 10SM UP OVC070 M21/M25 A3033 RMK AO2 SLP312 P0000 T12111250